createdAt,value
2023-04-28T00:00:52.768Z,8.35
2023-04-28T00:01:55.340Z,11.54
2023-04-28T00:02:58.001Z,9.42
2023-04-28T00:04:00.988Z,9.73
2023-04-28T00:05:03.795Z,9.70
2023-04-28T00:06:06.725Z,10.03
2023-04-28T00:07:09.272Z,11.27
2023-04-28T00:08:11.866Z,9.17
2023-04-28T00:09:14.430Z,11.01
2023-04-28T00:10:17.155Z,8.71
2023-04-28T00:11:19.737Z,13.32
2023-04-28T00:12:22.292Z,11.75
2023-04-28T00:13:24.854Z,11.62
2023-04-28T00:14:27.419Z,11.29
2023-04-28T00:15:29.984Z,8.39
2023-04-28T00:16:32.640Z,9.40
2023-04-28T00:17:35.538Z,8.36
2023-04-28T00:18:38.183Z,13.26
2023-04-28T00:19:41.050Z,9.82
2023-04-28T00:20:43.816Z,9.39
2023-04-28T00:21:46.373Z,8.67
2023-04-28T00:22:49.162Z,10.68
2023-04-28T00:23:51.727Z,11.71
2023-04-28T00:24:54.294Z,9.28
2023-04-28T00:25:56.872Z,10.19
2023-04-28T00:26:59.498Z,12.93
2023-04-28T00:28:02.049Z,7.68
2023-04-28T00:29:04.647Z,7.82
2023-04-28T00:30:07.583Z,8.91
2023-04-28T00:31:10.263Z,11.93
2023-04-28T00:32:12.969Z,8.17
2023-04-28T00:33:15.595Z,7.28
2023-04-28T00:34:18.455Z,11.93
2023-04-28T00:35:21.321Z,13.07
2023-04-28T00:36:23.903Z,7.62
2023-04-28T00:37:26.462Z,8.62
2023-04-28T00:38:29.078Z,10.79
2023-04-28T00:39:31.868Z,8.42
2023-04-28T00:40:34.611Z,8.03
2023-04-28T00:41:37.238Z,8.98
2023-04-28T00:42:39.897Z,8.72
2023-04-28T00:43:42.451Z,13.78
2023-04-28T00:44:45.021Z,9.52
2023-04-28T00:45:47.609Z,8.74
2023-04-28T00:46:50.552Z,13.84
2023-04-28T00:47:53.250Z,14.82
2023-04-28T00:48:55.904Z,9.34
2023-04-28T00:49:58.458Z,10.34
2023-04-28T00:51:01.221Z,10.42
2023-04-28T00:52:03.810Z,8.19
2023-04-28T00:53:06.537Z,12.28
2023-04-28T00:54:09.113Z,9.44
2023-04-28T00:55:12.047Z,8.07
2023-04-28T00:56:14.853Z,10.23
2023-04-28T00:57:17.403Z,9.06
2023-04-28T00:58:19.970Z,9.90
2023-04-28T00:59:22.521Z,9.79
2023-04-28T01:00:25.294Z,7.71
2023-04-28T01:01:27.946Z,8.07
2023-04-28T01:02:30.719Z,10.29
2023-04-28T01:03:33.678Z,10.06
2023-04-28T01:04:36.663Z,9.59
2023-04-28T01:05:39.520Z,9.58
2023-04-28T01:06:42.165Z,8.22
2023-04-28T01:07:44.713Z,8.77
2023-04-28T01:08:47.272Z,9.38
2023-04-28T01:09:49.894Z,9.36
2023-04-28T01:10:52.487Z,15.35
2023-04-28T01:11:55.049Z,8.99
2023-04-28T01:12:58.136Z,10.33
2023-04-28T01:14:00.668Z,9.54
2023-04-28T01:15:03.236Z,7.92
2023-04-28T01:16:06.175Z,9.06
2023-04-28T01:17:08.772Z,11.43
2023-04-28T01:18:11.326Z,7.49
2023-04-28T01:19:13.956Z,11.13
2023-04-28T01:20:16.921Z,9.98
2023-04-28T01:21:19.464Z,9.64
2023-04-28T01:22:22.040Z,8.39
2023-04-28T01:23:24.628Z,10.69
2023-04-28T01:24:27.090Z,8.78
2023-04-28T01:25:29.685Z,8.92
2023-04-28T01:26:32.627Z,9.63
2023-04-28T01:27:35.178Z,9.17
2023-04-28T01:28:37.729Z,12.90
2023-04-28T01:29:40.314Z,9.71
2023-04-28T01:30:42.965Z,10.79
2023-04-28T01:31:45.581Z,11.04
2023-04-28T01:32:48.303Z,7.93
2023-04-28T01:33:50.829Z,9.06
2023-04-28T01:34:53.452Z,11.85
2023-04-28T01:35:56.301Z,10.36
2023-04-28T01:36:58.966Z,12.69
2023-04-28T01:38:01.511Z,11.49
2023-04-28T01:39:04.063Z,9.71
2023-04-28T01:40:07.009Z,10.12
2023-04-28T01:41:09.577Z,10.02
2023-04-28T01:42:12.261Z,12.07
2023-04-28T01:43:14.813Z,10.85
2023-04-28T01:44:17.715Z,8.15
2023-04-28T01:45:20.639Z,8.01
2023-04-28T01:46:23.366Z,10.79
2023-04-28T01:47:26.013Z,10.29
2023-04-28T01:48:28.549Z,9.14
2023-04-28T01:49:31.193Z,10.89
2023-04-28T01:50:33.991Z,14.29
2023-04-28T01:51:36.519Z,7.91
2023-04-28T01:52:39.069Z,11.13
2023-04-28T01:53:41.621Z,8.47
2023-04-28T01:54:44.078Z,8.11
2023-04-28T01:55:46.951Z,9.87
2023-04-28T01:56:49.682Z,13.49
2023-04-28T01:57:52.128Z,10.37
2023-04-28T01:58:54.786Z,9.40
2023-04-28T01:59:57.333Z,11.67
2023-04-28T02:01:00.127Z,10.20
2023-04-28T02:02:02.793Z,11.51
2023-04-28T02:03:05.449Z,15.93
2023-04-28T02:04:08.157Z,14.88
2023-04-28T02:05:10.705Z,11.07
2023-04-28T02:06:13.758Z,10.63
2023-04-28T02:07:16.380Z,10.43
2023-04-28T02:08:18.967Z,7.95
2023-04-28T02:09:21.512Z,12.19
2023-04-28T02:10:24.057Z,14.55
2023-04-28T02:11:26.652Z,10.27
2023-04-28T02:12:29.204Z,8.63
2023-04-28T02:13:31.777Z,13.69
2023-04-28T02:14:34.351Z,12.31
2023-04-28T02:15:36.993Z,11.85
2023-04-28T02:16:40.082Z,9.68
2023-04-28T02:17:42.656Z,15.22
2023-04-28T02:18:45.180Z,12.34
2023-04-28T02:19:47.740Z,10.49
2023-04-28T02:20:50.287Z,13.73
2023-04-28T02:21:52.840Z,11.39
2023-04-28T02:22:55.392Z,10.41
2023-04-28T02:23:57.948Z,20.01
2023-04-28T02:25:00.510Z,11.95
2023-04-28T02:26:03.207Z,11.81
2023-04-28T02:27:05.671Z,10.78
2023-04-28T02:28:08.207Z,13.86
2023-04-28T02:29:11.000Z,10.19
2023-04-28T02:30:13.526Z,11.30
2023-04-28T02:31:16.399Z,12.82
2023-04-28T02:32:19.226Z,15.18
2023-04-28T02:33:21.786Z,13.85
2023-04-28T02:34:24.423Z,16.22
2023-04-28T02:35:26.982Z,13.33
2023-04-28T02:36:29.695Z,13.30
2023-04-28T02:37:32.186Z,11.15
2023-04-28T02:38:35.130Z,12.52
2023-04-28T02:39:37.922Z,10.70
2023-04-28T02:40:40.654Z,11.40
2023-04-28T02:41:43.224Z,12.35
2023-04-28T02:42:45.820Z,14.21
2023-04-28T02:43:48.357Z,14.13
2023-04-28T02:44:50.874Z,143.01
2023-04-28T02:45:53.420Z,20.72
2023-04-28T02:46:55.927Z,32.29
2023-04-28T02:47:58.656Z,20.42
2023-04-28T02:49:01.320Z,14.93
2023-04-28T02:50:03.996Z,17.66
2023-04-28T02:51:06.572Z,15.98
2023-04-28T02:52:09.050Z,18.06
2023-04-28T02:53:11.625Z,13.33
2023-04-28T02:54:14.297Z,15.89
2023-04-28T02:55:17.045Z,12.96
2023-04-28T02:56:19.697Z,12.05
2023-04-28T02:57:22.222Z,18.30
2023-04-28T02:58:24.799Z,12.57
2023-04-28T02:59:27.387Z,12.85
2023-04-28T03:00:30.144Z,11.42
2023-04-28T03:01:32.791Z,13.14
2023-04-28T03:02:35.740Z,11.63
2023-04-28T03:03:38.473Z,13.21
2023-04-28T03:04:41.498Z,16.75
2023-04-28T03:05:44.388Z,25.23
2023-04-28T03:06:47.035Z,17.08
2023-04-28T03:07:49.625Z,12.88
2023-04-28T03:08:52.074Z,13.45
2023-04-28T03:09:54.625Z,9.74
2023-04-28T03:10:57.378Z,13.18
2023-04-28T03:11:59.835Z,12.65
2023-04-28T03:13:02.409Z,9.32
2023-04-28T03:14:04.936Z,15.51
2023-04-28T03:15:07.524Z,16.05
2023-04-28T03:16:10.752Z,9.32
2023-04-28T03:17:13.343Z,11.68
2023-04-28T03:18:15.895Z,12.05
2023-04-28T03:19:18.447Z,12.47
2023-04-28T03:20:21.098Z,11.65
2023-04-28T03:21:23.652Z,12.38
2023-04-28T03:22:26.223Z,15.11
2023-04-28T03:23:28.784Z,9.71
2023-04-28T03:24:31.320Z,13.23
2023-04-28T03:25:33.876Z,15.67
2023-04-28T03:26:36.516Z,13.37
2023-04-28T03:27:39.068Z,9.47
2023-04-28T03:28:41.629Z,12.26
2023-04-28T03:29:44.183Z,10.29
2023-04-28T03:30:46.840Z,13.13
2023-04-28T03:31:49.352Z,11.99
2023-04-28T03:32:52.219Z,12.33
2023-04-28T03:33:54.926Z,11.10
2023-04-28T03:34:57.477Z,10.03
2023-04-28T03:36:00.032Z,9.23
2023-04-28T03:37:02.595Z,14.77
2023-04-28T03:38:05.292Z,13.56
2023-04-28T03:39:07.874Z,22.29
2023-04-28T03:40:10.885Z,32.01
2023-04-28T03:41:13.457Z,33.21
2023-04-28T03:42:16.002Z,28.33
2023-04-28T03:43:18.561Z,30.01
2023-04-28T03:44:21.126Z,30.16
2023-04-28T03:45:23.806Z,27.56
2023-04-28T03:46:26.469Z,34.36
2023-04-28T03:47:29.270Z,37.61
2023-04-28T03:48:31.868Z,41.41
2023-04-28T03:49:34.640Z,35.94
2023-04-28T03:50:37.570Z,38.04
2023-04-28T03:51:40.119Z,35.49
2023-04-28T03:52:42.703Z,34.55
2023-04-28T03:53:45.267Z,37.65
2023-04-28T03:54:47.860Z,32.56
2023-04-28T03:55:50.421Z,33.87
2023-04-28T03:56:53.286Z,37.79
2023-04-28T03:57:56.028Z,31.33
2023-04-28T03:58:58.683Z,29.66
2023-04-28T04:00:01.232Z,34.35
2023-04-28T04:01:03.789Z,27.33
2023-04-28T04:02:06.393Z,27.69
2023-04-28T04:03:09.140Z,28.15
2023-04-28T04:04:12.355Z,25.17
2023-04-28T04:05:15.442Z,23.51
2023-04-28T04:06:18.616Z,24.02
2023-04-28T04:07:21.221Z,22.87
2023-04-28T04:08:23.904Z,26.19
2023-04-28T04:09:26.750Z,26.23
2023-04-28T04:10:29.538Z,27.04
2023-04-28T04:11:32.100Z,24.33
2023-04-28T04:12:34.905Z,25.73
2023-04-28T04:13:37.714Z,27.63
2023-04-28T04:14:40.369Z,23.57
2023-04-28T04:15:43.014Z,27.19
2023-04-28T04:16:45.915Z,22.01
2023-04-28T04:17:48.529Z,25.24
2023-04-28T04:18:51.272Z,23.56
2023-04-28T04:19:53.841Z,23.74
2023-04-28T04:20:56.809Z,23.01
2023-04-28T04:21:59.358Z,26.90
2023-04-28T04:23:01.947Z,22.70
2023-04-28T04:24:04.492Z,23.56
2023-04-28T04:25:07.061Z,25.91
2023-04-28T04:26:09.865Z,29.94
2023-04-28T04:27:12.416Z,17.51
2023-04-28T04:28:14.988Z,20.73
2023-04-28T04:29:17.560Z,19.63
2023-04-28T04:30:20.227Z,19.85
2023-04-28T04:31:22.944Z,17.45
2023-04-28T04:32:26.003Z,19.80
2023-04-28T04:33:28.750Z,18.96
2023-04-28T04:34:31.394Z,21.05
2023-04-28T04:35:33.949Z,20.58
2023-04-28T04:36:36.752Z,18.14
2023-04-28T04:37:39.368Z,19.07
2023-04-28T04:38:41.896Z,26.51
2023-04-28T04:39:44.538Z,22.23
2023-04-28T04:40:47.175Z,16.37
2023-04-28T04:41:49.669Z,15.35
2023-04-28T04:42:52.226Z,16.57
2023-04-28T04:43:54.771Z,17.25
2023-04-28T04:44:57.325Z,15.28
2023-04-28T04:45:59.899Z,16.85
2023-04-28T04:47:02.469Z,15.44
2023-04-28T04:48:05.248Z,15.49
2023-04-28T04:49:07.966Z,14.07
2023-04-28T04:50:10.963Z,21.10
2023-04-28T04:51:13.522Z,19.93
2023-04-28T04:52:16.082Z,17.07
2023-04-28T04:53:18.662Z,13.87
2023-04-28T04:54:21.323Z,14.02
2023-04-28T04:55:23.908Z,13.53
2023-04-28T04:56:26.699Z,11.89
2023-04-28T04:57:29.274Z,14.59
2023-04-28T04:58:31.833Z,17.42
2023-04-28T04:59:34.474Z,13.87
2023-04-28T05:00:37.682Z,16.19
2023-04-28T05:01:40.383Z,16.99
2023-04-28T05:02:43.094Z,15.99
2023-04-28T05:03:46.021Z,15.39
2023-04-28T05:04:48.767Z,17.17
2023-04-28T05:05:51.585Z,15.73
2023-04-28T05:06:54.251Z,13.35
2023-04-28T05:07:56.917Z,15.25
2023-04-28T05:08:59.513Z,15.03
2023-04-28T05:10:02.087Z,17.84
2023-04-28T05:11:04.624Z,14.65
2023-04-28T05:12:07.186Z,12.54
2023-04-28T05:13:09.757Z,13.22
2023-04-28T05:14:12.313Z,15.08
2023-04-28T05:15:14.928Z,13.41
2023-04-28T05:16:17.773Z,14.47
2023-04-28T05:17:20.672Z,13.25
2023-04-28T05:18:23.253Z,15.90
2023-04-28T05:19:25.804Z,18.53
2023-04-28T05:20:28.506Z,19.05
2023-04-28T05:21:31.083Z,19.15
2023-04-28T05:22:33.617Z,14.13
2023-04-28T05:23:36.404Z,13.90
2023-04-28T05:24:38.965Z,15.27
2023-04-28T05:25:41.530Z,16.94
2023-04-28T05:26:44.411Z,17.77
2023-04-28T05:27:46.988Z,17.81
2023-04-28T05:28:49.630Z,22.16
2023-04-28T05:29:52.357Z,18.17
2023-04-28T05:30:55.056Z,16.09
2023-04-28T05:31:57.758Z,16.57
2023-04-28T05:33:00.447Z,21.28
2023-04-28T05:34:03.159Z,19.61
2023-04-28T05:35:05.945Z,18.73
2023-04-28T05:36:08.716Z,17.14
2023-04-28T05:37:11.265Z,27.69
2023-04-28T05:38:13.760Z,19.41
2023-04-28T05:39:16.342Z,20.36
2023-04-28T05:40:19.106Z,19.95
2023-04-28T05:41:21.653Z,17.31
2023-04-28T05:42:24.245Z,22.19
2023-04-28T05:43:26.790Z,21.01
2023-04-28T05:44:29.388Z,16.09
2023-04-28T05:45:32.039Z,18.77
2023-04-28T05:46:35.216Z,21.57
2023-04-28T05:47:38.070Z,20.27
2023-04-28T05:48:40.649Z,19.08
2023-04-28T05:49:43.207Z,22.22
2023-04-28T05:50:46.076Z,21.19
2023-04-28T05:51:48.619Z,15.23
2023-04-28T05:52:51.171Z,16.99
2023-04-28T05:53:53.733Z,21.79
2023-04-28T05:54:56.290Z,21.55
2023-04-28T05:55:58.838Z,17.19
2023-04-28T05:57:01.699Z,22.35
2023-04-28T05:58:04.482Z,22.54
2023-04-28T05:59:07.072Z,18.66
2023-04-28T06:00:09.725Z,21.58
2023-04-28T06:01:12.283Z,17.15
2023-04-28T06:02:14.904Z,22.76
2023-04-28T06:03:18.066Z,17.89
2023-04-28T06:04:21.160Z,19.96
2023-04-28T06:05:24.825Z,22.66
2023-04-28T06:06:28.241Z,21.06
2023-04-28T06:07:30.955Z,19.14
2023-04-28T06:08:33.533Z,21.44
2023-04-28T06:09:36.086Z,25.69
2023-04-28T06:10:38.959Z,20.92
2023-04-28T06:11:41.522Z,25.07
2023-04-28T06:12:44.109Z,36.59
2023-04-28T06:13:46.699Z,28.18
2023-04-28T06:14:49.248Z,28.35
2023-04-28T06:15:51.970Z,30.51
2023-04-28T06:16:54.531Z,28.11
2023-04-28T06:17:57.565Z,28.94
2023-04-28T06:19:00.260Z,25.23
2023-04-28T06:20:03.095Z,27.25
2023-04-28T06:21:05.646Z,26.76
2023-04-28T06:22:08.214Z,29.99
2023-04-28T06:23:10.763Z,27.77
2023-04-28T06:24:13.392Z,22.92
2023-04-28T06:25:15.918Z,24.71
2023-04-28T06:26:18.721Z,21.65
2023-04-28T06:27:21.344Z,23.01
2023-04-28T06:28:23.894Z,25.57
2023-04-28T06:29:26.682Z,29.35
2023-04-28T06:30:29.336Z,24.37
2023-04-28T06:31:31.958Z,28.38
2023-04-28T06:32:34.715Z,27.20
2023-04-28T06:33:37.360Z,25.96
2023-04-28T06:34:40.038Z,26.97
2023-04-28T06:35:42.591Z,25.01
2023-04-28T06:36:45.054Z,24.22
2023-04-28T06:37:47.634Z,25.28
2023-04-28T06:38:50.219Z,26.93
2023-04-28T06:39:52.778Z,28.74
2023-04-28T06:40:55.372Z,31.85
2023-04-28T06:41:57.946Z,29.22
2023-04-28T06:43:00.619Z,31.43
2023-04-28T06:44:03.177Z,29.30
2023-04-28T06:45:06.173Z,31.21
2023-04-28T06:46:09.140Z,28.60
2023-04-28T06:47:11.742Z,25.48
2023-04-28T06:48:14.376Z,26.51
2023-04-28T06:49:17.111Z,28.91
2023-04-28T06:50:19.790Z,28.09
2023-04-28T06:51:22.623Z,26.80
2023-04-28T06:52:33.087Z,29.76
2023-04-28T06:53:30.060Z,27.28
2023-04-28T06:54:32.649Z,22.68
2023-04-28T06:55:35.321Z,25.25
2023-04-28T06:56:38.204Z,29.81
2023-04-28T06:57:40.850Z,27.65
2023-04-28T06:58:43.404Z,25.33
2023-04-28T06:59:45.969Z,30.87
2023-04-28T07:00:48.670Z,30.52
2023-04-28T07:01:51.196Z,26.67
2023-04-28T07:02:54.209Z,30.69
2023-04-28T07:03:57.337Z,29.19
2023-04-28T07:05:00.244Z,29.40
2023-04-28T07:06:02.749Z,27.30
2023-04-28T07:07:05.305Z,28.33
2023-04-28T07:08:07.880Z,21.92
2023-04-28T07:09:10.415Z,22.43
2023-04-28T07:10:13.742Z,19.61
2023-04-28T07:11:16.446Z,21.59
2023-04-28T07:12:19.031Z,23.33
2023-04-28T07:13:21.659Z,18.45
2023-04-28T07:14:24.287Z,18.71
2023-04-28T07:15:27.331Z,23.31
2023-04-28T07:16:30.277Z,20.74
2023-04-28T07:17:32.885Z,21.54
2023-04-28T07:18:35.469Z,22.77
2023-04-28T07:19:38.227Z,24.72
2023-04-28T07:20:41.101Z,20.33
2023-04-28T07:21:43.647Z,41.45
2023-04-28T07:22:46.265Z,19.16
2023-04-28T07:23:48.828Z,17.58
2023-04-28T07:24:51.306Z,22.05
2023-04-28T07:25:53.862Z,23.23
2023-04-28T07:26:56.528Z,18.53
2023-04-28T07:27:59.116Z,18.91
2023-04-28T07:29:01.679Z,16.73
2023-04-28T07:30:15.150Z,17.41
2023-04-28T07:31:09.673Z,17.26
2023-04-28T07:32:12.397Z,12.94
2023-04-28T07:33:15.002Z,14.23
2023-04-28T07:34:17.861Z,14.53
2023-04-28T07:35:20.720Z,14.93
2023-04-28T07:36:23.370Z,12.48
2023-04-28T07:37:26.033Z,11.58
2023-04-28T07:38:28.518Z,9.81
2023-04-28T07:39:31.059Z,10.69
2023-04-28T07:40:34.105Z,9.26
2023-04-28T07:41:36.619Z,9.26
2023-04-28T07:42:39.435Z,10.21
2023-04-28T07:43:42.045Z,10.71
2023-04-28T07:44:44.610Z,8.31
2023-04-28T07:45:47.203Z,11.39
2023-04-28T07:46:52.145Z,11.48
2023-04-28T07:47:54.517Z,10.75
2023-04-28T07:48:57.175Z,7.89
2023-04-28T07:49:59.734Z,12.77
2023-04-28T07:51:02.319Z,8.93
2023-04-28T07:52:04.865Z,10.53
2023-04-28T07:53:07.424Z,9.33
2023-04-28T07:54:10.084Z,8.25
2023-04-28T07:55:12.648Z,7.63
2023-04-28T07:56:15.339Z,8.51
2023-04-28T07:57:17.897Z,7.46
2023-04-28T07:58:20.448Z,8.37
2023-04-28T07:59:23.068Z,7.87
2023-04-28T08:00:25.652Z,6.38
2023-04-28T08:01:28.175Z,10.73
2023-04-28T08:02:31.151Z,9.39
2023-04-28T08:03:34.371Z,8.18
2023-04-28T08:04:40.560Z,6.81
2023-04-28T08:05:43.404Z,12.24
2023-04-28T08:06:46.518Z,7.69
2023-04-28T08:07:49.020Z,6.78
2023-04-28T08:08:51.472Z,9.25
2023-04-28T08:09:54.052Z,7.97
2023-04-28T08:10:56.981Z,7.81
2023-04-28T08:11:59.567Z,9.69
2023-04-28T08:13:02.125Z,8.01
2023-04-28T08:14:05.001Z,8.61
2023-04-28T08:15:07.606Z,6.36
2023-04-28T08:16:10.980Z,5.12
2023-04-28T08:17:13.505Z,4.62
2023-04-28T08:18:16.103Z,8.07
2023-04-28T08:19:18.835Z,6.87
2023-04-28T08:20:24.400Z,4.92
2023-04-28T08:21:26.018Z,5.78
2023-04-28T08:22:28.554Z,4.71
2023-04-28T08:23:31.159Z,4.13
2023-04-28T08:24:33.672Z,6.88
2023-04-28T08:25:36.243Z,5.98
2023-04-28T08:26:39.112Z,8.19
2023-04-28T08:27:41.683Z,7.45
2023-04-28T08:28:44.281Z,5.01
2023-04-28T08:29:46.878Z,6.79
2023-04-28T08:30:49.573Z,6.15
2023-04-28T08:31:52.161Z,3.61
2023-04-28T08:32:54.727Z,5.05
2023-04-28T08:33:57.266Z,5.18
2023-04-28T08:34:59.993Z,5.81
2023-04-28T08:36:02.581Z,4.95
2023-04-28T08:37:05.135Z,5.38
2023-04-28T08:38:07.705Z,3.69
2023-04-28T08:39:12.977Z,6.88
2023-04-28T08:40:14.904Z,4.42
2023-04-28T08:41:17.446Z,3.79
2023-04-28T08:42:20.029Z,3.68
2023-04-28T08:43:22.590Z,3.71
2023-04-28T08:44:25.153Z,3.45
2023-04-28T08:45:28.483Z,3.34
2023-04-28T08:46:31.479Z,4.03
2023-04-28T08:47:34.136Z,2.96
2023-04-28T08:48:36.761Z,5.84
2023-04-28T08:49:39.377Z,4.95
2023-04-28T08:50:42.050Z,8.85
2023-04-28T08:51:44.622Z,5.07
2023-04-28T08:52:47.172Z,5.31
2023-04-28T08:54:14.825Z,4.11
2023-04-28T08:54:54.162Z,7.22
2023-04-28T08:55:56.872Z,3.74
2023-04-28T08:56:59.598Z,4.25
2023-04-28T08:58:02.169Z,4.61
2023-04-28T08:59:04.709Z,5.87
2023-04-28T09:00:07.574Z,5.82
2023-04-28T09:01:10.127Z,4.38
2023-04-28T09:02:12.925Z,5.92
2023-04-28T09:03:15.961Z,6.65
2023-04-28T09:04:19.465Z,4.04
2023-04-28T09:05:22.691Z,6.18
2023-04-28T09:06:25.540Z,4.53
2023-04-28T09:07:28.364Z,8.91
2023-04-28T09:08:30.890Z,2.78
2023-04-28T09:09:35.693Z,7.30
2023-04-28T09:10:37.705Z,5.24
2023-04-28T09:11:40.285Z,4.89
2023-04-28T09:12:42.939Z,5.88
2023-04-28T09:13:45.480Z,3.33
2023-04-28T09:14:48.072Z,3.69
2023-04-28T09:15:50.653Z,5.64
2023-04-28T09:16:53.516Z,4.44
2023-04-28T09:17:56.459Z,4.94
2023-04-28T09:18:58.982Z,4.49
2023-04-28T09:20:01.603Z,3.93
2023-04-28T09:21:04.164Z,7.43
2023-04-28T09:22:21.725Z,3.57
2023-04-28T09:23:11.138Z,3.78
2023-04-28T09:24:13.846Z,4.90
2023-04-28T09:25:16.816Z,4.23
2023-04-28T09:26:19.422Z,5.13
2023-04-28T09:27:21.950Z,4.95
2023-04-28T09:28:24.503Z,4.97
2023-04-28T09:29:27.112Z,5.45
2023-04-28T09:30:29.980Z,3.25
2023-04-28T09:31:32.653Z,4.67
2023-04-28T09:32:35.386Z,8.71
2023-04-28T09:33:39.937Z,4.83
2023-04-28T09:34:42.498Z,3.33
2023-04-28T09:35:45.115Z,11.81
2023-04-28T09:36:47.881Z,14.23
2023-04-28T09:37:50.421Z,4.11
2023-04-28T09:38:53.575Z,6.27
2023-04-28T09:39:57.430Z,6.98
2023-04-28T09:41:00.493Z,4.33
2023-04-28T09:42:03.499Z,5.72
2023-04-28T09:43:18.767Z,6.05
2023-04-28T09:44:10.689Z,5.15
2023-04-28T09:45:13.324Z,21.74
2023-04-28T09:46:16.621Z,4.49
2023-04-28T09:47:19.182Z,6.13
2023-04-28T09:48:21.771Z,11.83
2023-04-28T09:49:25.375Z,10.93
2023-04-28T09:50:28.037Z,6.40
2023-04-28T09:51:30.597Z,8.89
2023-04-28T09:52:33.194Z,6.07
2023-04-28T09:53:35.797Z,6.51
2023-04-28T09:54:38.628Z,6.42
2023-04-28T09:55:41.188Z,8.35
2023-04-28T09:56:43.756Z,8.87
2023-04-28T09:57:47.839Z,9.87
2023-04-28T09:58:50.696Z,7.65
2023-04-28T09:59:53.286Z,7.84
2023-04-28T10:00:55.957Z,8.05
2023-04-28T10:01:58.597Z,6.99
2023-04-28T10:03:01.352Z,5.49
2023-04-28T10:04:04.395Z,5.63
2023-04-28T10:05:07.448Z,8.61
2023-04-28T10:06:10.883Z,5.95
2023-04-28T10:07:13.442Z,5.67
2023-04-28T10:08:16.003Z,6.31
2023-04-28T10:09:18.554Z,9.29
2023-04-28T10:10:21.255Z,7.33
2023-04-28T10:11:23.778Z,9.39
2023-04-28T10:12:26.251Z,4.70
2023-04-28T10:13:29.108Z,8.13
2023-04-28T10:14:31.804Z,6.91
2023-04-28T10:15:34.384Z,8.57
2023-04-28T10:16:37.216Z,7.49
2023-04-28T10:17:39.769Z,6.04
2023-04-28T10:18:42.474Z,4.03
2023-04-28T10:19:45.023Z,5.97
2023-04-28T10:20:49.116Z,10.31
2023-04-28T10:21:51.716Z,4.43
2023-04-28T10:22:54.367Z,4.23
2023-04-28T10:23:56.941Z,6.49
2023-04-28T10:24:59.487Z,7.09
2023-04-28T10:26:02.044Z,11.22
2023-04-28T10:27:04.604Z,7.02
2023-04-28T10:28:07.217Z,5.95
2023-04-28T10:29:09.893Z,4.77
2023-04-28T10:30:22.945Z,4.92
2023-04-28T10:31:16.925Z,4.79
2023-04-28T10:32:19.758Z,5.99
2023-04-28T10:33:22.210Z,7.73
2023-04-28T10:34:24.793Z,5.83
2023-04-28T10:35:27.381Z,5.79
2023-04-28T10:36:36.257Z,8.58
2023-04-28T10:37:34.502Z,3.09
2023-04-28T10:38:37.098Z,4.65
2023-04-28T10:39:39.752Z,5.44
2023-04-28T10:40:42.663Z,5.32
2023-04-28T10:41:45.335Z,5.59
2023-04-28T10:42:47.871Z,5.75
2023-04-28T10:43:50.332Z,5.30
2023-04-28T10:44:52.902Z,5.77
2023-04-28T10:45:57.083Z,5.75
2023-04-28T10:47:00.452Z,3.66
2023-04-28T10:48:03.195Z,4.14
2023-04-28T10:49:05.814Z,4.35
2023-04-28T10:50:08.836Z,3.94
2023-04-28T10:51:11.398Z,4.29
2023-04-28T10:52:15.121Z,6.56
2023-04-28T10:53:17.839Z,5.67
2023-04-28T10:54:20.411Z,4.26
2023-04-28T10:55:22.881Z,6.23
2023-04-28T10:56:25.767Z,4.17
2023-04-28T10:57:28.334Z,8.09
2023-04-28T10:58:30.879Z,8.45
2023-04-28T10:59:33.251Z,5.83
2023-04-28T11:00:36.105Z,7.65
2023-04-28T11:01:38.645Z,3.33
2023-04-28T11:02:44.398Z,3.86
2023-04-28T11:03:45.920Z,2.99
2023-04-28T11:04:48.762Z,3.94
2023-04-28T11:05:51.378Z,3.55
2023-04-28T11:06:53.907Z,5.35
2023-04-28T11:07:57.776Z,4.25
2023-04-28T11:09:00.920Z,4.69
2023-04-28T11:10:03.553Z,3.63
2023-04-28T11:11:06.508Z,7.78
2023-04-28T11:12:09.180Z,3.82
2023-04-28T11:13:11.761Z,4.25
2023-04-28T11:14:14.462Z,3.77
2023-04-28T11:15:17.016Z,7.17
2023-04-28T11:16:19.954Z,3.87
2023-04-28T11:17:22.530Z,7.13
2023-04-28T11:18:25.083Z,3.69
2023-04-28T11:19:27.774Z,7.46
2023-04-28T11:20:30.434Z,14.41
2023-04-28T11:21:33.055Z,9.47
2023-04-28T11:22:35.714Z,8.26
2023-04-28T11:23:38.279Z,4.59
2023-04-28T11:24:40.860Z,6.18
2023-04-28T11:25:43.406Z,7.03
2023-04-28T11:26:45.972Z,11.29
2023-04-28T11:27:48.573Z,14.08
2023-04-28T11:28:51.124Z,8.81
2023-04-28T11:29:53.716Z,4.13
2023-04-28T11:30:56.556Z,4.74
2023-04-28T11:31:59.127Z,5.25
2023-04-28T11:33:01.710Z,5.78
2023-04-28T11:34:04.259Z,4.06
2023-04-28T11:35:06.803Z,10.77
2023-04-28T11:36:10.313Z,11.68
2023-04-28T11:37:12.863Z,9.20
2023-04-28T11:38:15.470Z,6.87
2023-04-28T11:39:18.019Z,8.61
2023-04-28T11:40:20.877Z,3.49
2023-04-28T11:41:23.441Z,5.22
2023-04-28T11:42:25.997Z,4.48
2023-04-28T11:43:36.576Z,3.95
2023-04-28T11:44:32.952Z,5.37
2023-04-28T11:45:35.570Z,5.45
2023-04-28T11:46:38.160Z,5.43
2023-04-28T11:47:40.801Z,7.49
2023-04-28T11:48:43.505Z,6.14
2023-04-28T11:49:46.099Z,7.07
2023-04-28T11:50:48.836Z,6.27
2023-04-28T11:51:51.437Z,8.14
2023-04-28T11:52:54.110Z,8.45
2023-04-28T11:53:56.846Z,5.93
2023-04-28T11:54:59.416Z,4.49
2023-04-28T11:56:01.979Z,7.61
2023-04-28T11:57:04.697Z,6.42
2023-04-28T11:58:07.486Z,8.39
2023-04-28T11:59:11.761Z,8.25
2023-04-28T12:00:14.575Z,6.05
2023-04-28T12:01:17.418Z,7.45
2023-04-28T12:02:20.078Z,4.65
2023-04-28T12:03:22.845Z,5.27
2023-04-28T12:04:25.679Z,4.77
2023-04-28T12:05:28.224Z,4.57
2023-04-28T12:06:31.019Z,5.38
2023-04-28T12:07:33.588Z,4.79
2023-04-28T12:08:36.139Z,4.84
2023-04-28T12:09:38.701Z,8.95
2023-04-28T12:10:41.376Z,3.08
2023-04-28T12:11:44.264Z,3.89
2023-04-28T12:12:51.943Z,9.39
2023-04-28T12:13:51.117Z,3.97
2023-04-28T12:14:53.674Z,4.73
2023-04-28T12:15:56.249Z,5.79
2023-04-28T12:16:59.209Z,5.09
2023-04-28T12:18:01.773Z,3.68
2023-04-28T12:19:04.326Z,5.76
2023-04-28T12:20:07.402Z,9.85
2023-04-28T12:21:10.275Z,5.31
2023-04-28T12:22:12.831Z,4.57
2023-04-28T12:23:15.411Z,5.21
2023-04-28T12:24:17.984Z,4.23
2023-04-28T12:25:20.556Z,6.68
2023-04-28T12:26:23.205Z,4.09
2023-04-28T12:27:25.768Z,3.73
2023-04-28T12:28:28.345Z,9.97
2023-04-28T12:29:30.894Z,4.07
2023-04-28T12:30:33.727Z,4.06
2023-04-28T12:31:36.407Z,4.60
2023-04-28T12:32:39.022Z,3.73
2023-04-28T12:33:41.869Z,5.45
2023-04-28T12:34:44.406Z,14.86
2023-04-28T12:35:46.989Z,9.03
2023-04-28T12:36:49.546Z,7.05
2023-04-28T12:37:52.108Z,5.34
2023-04-28T12:38:54.716Z,2.70
2023-04-28T12:39:57.349Z,4.16
2023-04-28T12:41:00.098Z,5.04
2023-04-28T12:42:02.600Z,6.39
2023-04-28T12:43:05.163Z,20.92
2023-04-28T12:44:07.754Z,54.09
2023-04-28T12:45:10.362Z,39.07
2023-04-28T12:46:13.348Z,26.42
2023-04-28T12:47:16.231Z,16.86
2023-04-28T12:48:18.818Z,16.64
2023-04-28T12:49:21.354Z,17.43
2023-04-28T12:50:24.330Z,7.81
2023-04-28T12:51:26.910Z,10.41
2023-04-28T12:52:29.771Z,8.53
2023-04-28T12:53:32.332Z,11.02
2023-04-28T12:54:34.919Z,4.47
2023-04-28T12:55:37.518Z,5.32
2023-04-28T12:56:40.391Z,27.71
2023-04-28T12:57:42.944Z,36.23
2023-04-28T12:58:45.497Z,27.62
2023-04-28T12:59:48.059Z,53.97
2023-04-28T13:00:50.598Z,24.83
2023-04-28T13:01:53.251Z,8.83
2023-04-28T13:02:56.849Z,8.89
2023-04-28T13:03:59.919Z,5.12
2023-04-28T13:05:02.875Z,6.17
2023-04-28T13:06:06.557Z,8.33
2023-04-28T13:07:09.145Z,12.50
2023-04-28T13:08:11.684Z,12.69
2023-04-28T13:09:14.243Z,44.69
2023-04-28T13:10:17.218Z,76.21
2023-04-28T13:11:22.727Z,40.96
2023-04-28T13:12:24.154Z,47.82
2023-04-28T13:13:26.712Z,36.55
2023-04-28T13:14:29.242Z,23.00
2023-04-28T13:15:31.817Z,8.21
2023-04-28T13:16:34.799Z,6.62
2023-04-28T13:17:37.455Z,7.42
2023-04-28T13:18:40.003Z,9.80
2023-04-28T13:19:42.910Z,15.49
2023-04-28T13:20:46.138Z,7.89
2023-04-28T13:21:48.656Z,8.36
2023-04-28T13:22:51.221Z,5.85
2023-04-28T13:23:53.759Z,8.03
2023-04-28T13:24:56.367Z,4.22
2023-04-28T13:25:58.892Z,7.56
2023-04-28T13:27:01.764Z,5.72
2023-04-28T13:28:04.397Z,6.99
2023-04-28T13:29:06.938Z,6.11
2023-04-28T13:30:10.388Z,4.87
2023-04-28T13:31:12.950Z,5.20
2023-04-28T13:32:15.807Z,7.59
2023-04-28T13:33:18.373Z,4.65
2023-04-28T13:34:21.077Z,5.81
2023-04-28T13:35:23.650Z,4.85
2023-04-28T13:36:26.402Z,5.70
2023-04-28T13:37:29.013Z,5.21
2023-04-28T13:38:31.589Z,4.90
2023-04-28T13:39:34.276Z,6.22
2023-04-28T13:40:37.027Z,4.37